Aérodrome :
LOGIN :

S'inscrire | Disclaimer

   EN    FR    IT 

 










Légende :    VFR   VFR Marginal   IFR   IFR Intensif   IFR Très Intensif
Visi : 
Plafond : 
>= 8 km
>= 3000ft
5 à 8 km
1000 à 3000 ft
1500m à 5 km
500 à 1000 ft
800 à 1500m
200 à 500 ft
< 800m
< 200 ft
Symboles :   Orages  Brouillard  Fortes neiges  Fortes précipitations  Vent > 20 kt
SIGMETs :   Divers  Orages  Givrage  Turbulence  Onde Orograph.  Cendres Volcan.







- Altitude de l'aérodrome : 412 ft
- Code IATA : ORE
- Voir les cartes d'approche


LFOJ - Orleans

DERNIER METAR :
  • 240630Z AUTO 33003KT 6000 NSC 09/08 Q1020 BECMG 21010KT

METARs EXPIRÉS :
  • 240600Z AUTO 00000KT CAVOK 08/07 Q1020 BECMG 21010KT
  • 240530Z AUTO 00000KT 9000 NSC 06/06 Q1020 BECMG 21010KT
  • 240500Z AUTO 00000KT 9000 NSC 06/05 Q1020 NOSIG
  • 240430Z AUTO 00000KT CAVOK 06/06 Q1020
  • 240400Z AUTO 00000KT CAVOK 07/06 Q1019

TAF AMD TAF LFOJ
Valide du 24 à 05h jusqu'au 25 à 03h UTC


240420Z 2405/2503 VRB03KT CAVOK
TEMPO 2405/2407 BCFG
BECMG 2407/2409 21010KT
Pas de NOTAMs connus pour ce terrain.



MET'MAP, la Météo Aéronautique d'un coup d'oeil ! - Copyright ORBIFLY Décembre 2007 - Disclaimer

ORBIFLY MET'MAP TEAM :

Programmation & Développement : Alexandra Zaïnal
Conception & Développement : Baudouin d'Aumeries
Co-Programmation & Développement : Marc-Olivier Méhu
Soutien technique & logistique : Manuel Goepfert

Contact : metmap@orbifly.com




SOURCES & CREDITS :

   NOAA